createdAt,value
2023-01-28T00:04:09.176Z,102148.00
2023-01-28T00:09:10.997Z,102154.41
2023-01-28T00:14:12.831Z,102152.91
2023-01-28T00:19:15.882Z,102147.75
2023-01-28T00:24:17.623Z,102146.84
2023-01-28T00:29:19.525Z,102145.97
2023-01-28T00:34:23.285Z,102150.44
2023-01-28T00:39:27.911Z,102150.53
2023-01-28T00:44:29.688Z,102147.84
2023-01-28T00:49:32.831Z,102154.00
2023-01-28T00:54:36.264Z,102150.44
2023-01-28T00:59:37.999Z,102156.28
2023-01-28T01:04:41.291Z,102168.56
2023-01-28T01:09:43.051Z,102158.34
2023-01-28T01:14:44.793Z,102158.44
2023-01-28T01:19:47.847Z,102155.25
2023-01-28T01:24:49.572Z,102149.00
2023-01-28T01:29:51.421Z,102153.38
2023-01-28T01:34:54.472Z,102146.25
2023-01-28T01:39:56.940Z,102147.91
2023-01-28T01:45:00.527Z,102143.81
2023-01-28T01:50:07.187Z,102165.41
2023-01-28T01:55:11.147Z,102158.69
2023-01-28T02:00:13.438Z,102169.97
2023-01-28T02:05:20.453Z,102175.72
2023-01-28T02:10:22.685Z,102181.00
2023-01-28T02:15:24.421Z,102182.84
2023-01-28T02:20:31.798Z,102173.34
2023-01-28T02:25:55.182Z,102190.13
2023-01-28T02:31:02.240Z,102177.31
2023-01-28T02:36:09.711Z,102175.03
2023-01-28T02:41:13.971Z,102164.00
2023-01-28T02:46:39.618Z,102160.47
2023-01-28T02:51:49.228Z,102161.91
2023-01-28T02:56:56.532Z,102150.69
2023-01-28T03:02:01.951Z,102158.00
2023-01-28T03:07:05.560Z,102162.44
2023-01-28T03:12:27.368Z,102166.47
2023-01-28T03:17:55.057Z,102151.38
2023-01-28T03:23:16.390Z,102149.69
2023-01-28T03:28:37.099Z,102143.34
2023-01-28T03:33:59.018Z,102149.09
2023-01-28T03:39:00.763Z,102152.09
2023-01-28T03:44:21.739Z,102153.78
2023-01-28T03:49:25.077Z,102154.16
2023-01-28T03:54:26.962Z,102149.31
2023-01-28T03:59:28.804Z,102154.63
2023-01-28T04:04:32.663Z,102165.03
2023-01-28T04:09:34.974Z,102174.44
2023-01-28T04:14:58.740Z,102164.13
2023-01-28T04:20:04.401Z,102175.00
2023-01-28T04:25:06.986Z,102176.13
2023-01-28T04:30:09.864Z,102175.88
2023-01-28T04:35:17.087Z,102188.94
2023-01-28T04:40:42.537Z,102189.84
2023-01-28T04:45:47.225Z,102190.53
2023-01-28T04:51:22.693Z,102197.28
2023-01-28T04:56:53.718Z,102194.44
2023-01-28T05:01:55.709Z,102192.66
2023-01-28T05:06:58.857Z,102201.06
2023-01-28T05:12:06.604Z,102196.72
2023-01-28T05:17:11.580Z,102195.09
2023-01-28T05:22:15.658Z,102193.94
2023-01-28T05:27:20.029Z,102198.19
2023-01-28T05:32:21.807Z,102198.09
2023-01-28T05:37:25.197Z,102197.28
2023-01-28T05:42:29.718Z,102185.22
2023-01-28T05:47:45.926Z,102186.22
2023-01-28T05:53:17.965Z,102187.00
2023-01-28T05:58:21.111Z,102180.16
2023-01-28T06:03:22.985Z,102186.91
2023-01-28T06:08:25.991Z,102193.75
2023-01-28T06:13:27.781Z,102188.69
2023-01-28T06:18:48.286Z,102198.81
2023-01-28T06:23:51.450Z,102202.97
2023-01-28T06:28:53.597Z,102200.19
2023-01-28T06:33:55.348Z,102199.31
2023-01-28T06:38:58.705Z,102206.16
2023-01-28T06:44:00.399Z,102203.47
2023-01-28T06:49:02.357Z,102199.22
2023-01-28T06:54:05.635Z,102200.00
2023-01-28T06:59:07.370Z,102205.25
2023-01-28T07:04:09.351Z,102207.63
2023-01-28T07:09:12.371Z,102209.31
2023-01-28T07:14:15.163Z,102209.13
2023-01-28T07:19:16.847Z,102210.09
2023-01-28T07:24:19.957Z,102209.94
2023-01-28T07:29:21.871Z,102215.47
2023-01-28T07:34:23.594Z,102209.41
2023-01-28T07:39:26.707Z,102207.84
2023-01-28T07:44:28.532Z,102224.59
2023-01-28T07:49:30.284Z,102222.28
2023-01-28T07:54:33.282Z,102226.47
2023-01-28T07:59:35.027Z,102233.88
2023-01-28T08:04:38.150Z,102247.06
2023-01-28T08:09:41.274Z,102236.19
2023-01-28T08:14:42.983Z,102253.91
2023-01-28T08:19:44.737Z,102244.69
2023-01-28T08:24:47.849Z,102252.59
2023-01-28T08:29:49.560Z,102263.53
2023-01-28T08:34:51.286Z,102272.31
2023-01-28T08:39:54.439Z,102265.56
2023-01-28T08:44:56.179Z,102266.75
2023-01-28T08:49:57.831Z,102272.94
2023-01-28T08:55:00.848Z,102281.13
2023-01-28T09:00:02.639Z,102294.34
2023-01-28T09:05:05.331Z,102298.91
2023-01-28T09:10:09.549Z,102298.81
2023-01-28T09:15:11.525Z,102298.00
2023-01-28T09:20:13.849Z,102304.59
2023-01-28T09:25:17.209Z,102316.50
2023-01-28T09:30:19.142Z,102329.50
2023-01-28T09:35:21.039Z,102322.78
2023-01-28T09:40:29.279Z,102331.03
2023-01-28T09:45:33.413Z,102339.25
2023-01-28T09:50:36.184Z,102341.88
2023-01-28T09:55:39.941Z,102344.59
2023-01-28T10:00:45.056Z,102344.59
2023-01-28T10:05:51.484Z,102342.09
2023-01-28T10:10:56.678Z,102340.09
2023-01-28T10:16:06.824Z,102333.09
2023-01-28T10:21:12.274Z,102339.31
2023-01-28T10:26:23.352Z,102326.94
2023-01-28T10:31:30.529Z,102332.63
2023-01-28T10:36:32.353Z,102317.31
2023-01-28T10:41:40.013Z,102315.69
2023-01-28T10:46:47.424Z,102328.41
2023-01-28T10:51:49.380Z,102322.03
2023-01-28T10:56:55.146Z,102315.47
2023-01-28T11:01:58.030Z,102323.03
2023-01-28T11:07:00.887Z,102313.91
2023-01-28T11:12:12.279Z,102328.59
2023-01-28T11:17:16.353Z,102333.00
2023-01-28T11:22:23.670Z,102329.13
2023-01-28T11:27:28.614Z,102322.06
2023-01-28T11:32:31.004Z,102311.44
2023-01-28T11:37:32.966Z,102312.75
2023-01-28T11:42:36.094Z,102308.47
2023-01-28T11:47:43.770Z,102304.00
2023-01-28T11:53:06.329Z,102290.22
2023-01-28T11:58:22.064Z,102293.00
2023-01-28T12:03:49.881Z,102273.66
2023-01-28T12:08:56.331Z,102272.75
2023-01-28T12:14:01.264Z,102260.63
2023-01-28T12:19:24.135Z,102257.03
2023-01-28T12:24:34.949Z,102239.97
2023-01-28T12:29:41.765Z,102229.44
2023-01-28T12:34:53.871Z,102224.19
2023-01-28T12:40:03.490Z,102194.84
2023-01-28T12:45:18.833Z,102172.50
2023-01-28T12:50:22.435Z,102155.84
2023-01-28T12:55:33.868Z,102143.44
2023-01-28T13:00:39.528Z,102136.75
2023-01-28T13:05:44.023Z,102136.91
2023-01-28T13:10:46.380Z,102150.31
2023-01-28T13:15:49.769Z,102162.84
2023-01-28T13:20:53.572Z,102162.56
2023-01-28T13:25:57.312Z,102167.09
2023-01-28T13:31:04.911Z,102178.25
2023-01-28T13:36:18.893Z,102188.31
2023-01-28T13:41:20.600Z,102182.03
2023-01-28T13:46:28.934Z,102189.72
2023-01-28T13:51:31.744Z,102194.06
2023-01-28T13:56:36.979Z,102192.59
2023-01-28T14:02:02.228Z,102214.91
2023-01-28T14:07:10.291Z,102225.75
2023-01-28T14:12:28.102Z,102201.00
2023-01-28T14:17:33.948Z,102194.53
2023-01-28T14:22:35.795Z,102166.63
2023-01-28T14:27:38.541Z,102149.75
2023-01-28T14:32:45.895Z,102147.94
2023-01-28T14:37:47.612Z,102158.34
2023-01-28T14:42:50.355Z,102168.53
2023-01-28T14:48:08.113Z,102170.69
2023-01-28T14:53:44.935Z,102176.34
2023-01-28T14:58:48.415Z,102171.38
2023-01-28T15:03:51.558Z,102170.91
2023-01-28T15:08:53.720Z,102186.16
2023-01-28T15:13:56.524Z,102204.72
2023-01-28T15:19:00.285Z,102210.47
2023-01-28T15:24:03.190Z,102209.31
2023-01-28T15:29:04.895Z,102202.47
2023-01-28T15:34:13.433Z,102212.34
2023-01-28T15:39:15.719Z,102212.75
2023-01-28T15:44:18.226Z,102211.63
2023-01-28T15:49:21.238Z,102214.56
2023-01-28T15:54:23.554Z,102223.88
2023-01-28T15:59:26.355Z,102220.41
2023-01-28T16:04:29.714Z,102215.72
2023-01-28T16:09:32.272Z,102225.69
2023-01-28T16:14:37.349Z,102250.19
2023-01-28T16:19:41.695Z,102259.19
2023-01-28T16:24:53.448Z,102252.53
2023-01-28T16:29:55.234Z,102244.41
2023-01-28T16:34:58.409Z,102234.25
2023-01-28T16:40:01.964Z,102235.28
2023-01-28T16:45:05.680Z,102222.41
2023-01-28T16:50:10.677Z,102219.94
2023-01-28T16:55:12.410Z,102206.38
2023-01-28T17:00:17.269Z,102208.84
2023-01-28T17:05:20.630Z,102202.94
2023-01-28T17:10:22.347Z,102218.06
2023-01-28T17:15:24.149Z,102226.25
2023-01-28T17:20:27.360Z,102220.69
2023-01-28T17:25:29.176Z,102206.81
2023-01-28T17:30:31.000Z,102219.38
2023-01-28T17:35:35.419Z,102208.66
2023-01-28T17:40:37.158Z,102212.69
2023-01-28T17:45:38.934Z,102207.81
2023-01-28T17:50:42.020Z,102222.09
2023-01-28T17:55:43.766Z,102224.94
2023-01-28T18:00:45.484Z,102237.44
2023-01-28T18:05:56.123Z,102237.59
2023-01-28T18:10:57.857Z,102233.91
2023-01-28T18:15:59.566Z,102233.00
2023-01-28T18:21:03.912Z,102238.38
2023-01-28T18:26:07.291Z,102241.16
2023-01-28T18:31:09.009Z,102236.47
2023-01-28T18:36:12.662Z,102241.41
2023-01-28T18:41:14.727Z,102236.59
2023-01-28T18:46:17.123Z,102230.53
2023-01-28T18:51:30.006Z,102257.34
2023-01-28T18:56:32.573Z,102255.91
2023-01-28T19:01:34.600Z,102259.13
2023-01-28T19:06:37.811Z,102274.91
2023-01-28T19:11:40.902Z,102276.38
2023-01-28T19:16:43.218Z,102294.88
2023-01-28T19:21:46.351Z,102296.56
2023-01-28T19:26:48.107Z,102283.16
2023-01-28T19:31:49.843Z,102265.50
2023-01-28T19:36:53.011Z,102264.63
2023-01-28T19:41:55.704Z,102254.13
2023-01-28T19:46:57.450Z,102241.59
2023-01-28T19:52:00.515Z,102233.91
2023-01-28T19:57:02.267Z,102234.44
2023-01-28T20:02:04.021Z,102219.16
2023-01-28T20:07:07.125Z,102225.84
2023-01-28T20:12:11.895Z,102209.25
2023-01-28T20:17:13.681Z,102213.69
2023-01-28T20:22:16.786Z,102219.63
2023-01-28T20:27:18.527Z,102216.06
2023-01-28T20:32:22.957Z,102218.72
2023-01-28T20:37:26.065Z,102218.72
2023-01-28T20:42:27.768Z,102210.44
2023-01-28T20:47:29.659Z,102216.38
2023-01-28T20:52:32.727Z,102223.06
2023-01-28T20:57:36.674Z,102216.69
2023-01-28T21:02:39.807Z,102215.53
2023-01-28T21:07:43.038Z,102209.94
2023-01-28T21:12:44.743Z,102203.22
2023-01-28T21:17:46.450Z,102185.00
2023-01-28T21:22:51.492Z,102188.56
2023-01-28T21:27:53.959Z,102190.75
2023-01-28T21:32:55.658Z,102185.94
2023-01-28T21:37:58.693Z,102199.00
2023-01-28T21:43:00.674Z,102201.56
2023-01-28T21:48:02.459Z,102176.03
2023-01-28T21:53:05.491Z,102184.72
2023-01-28T21:58:27.146Z,102192.28
2023-01-28T22:03:30.580Z,102198.94
2023-01-28T22:08:33.654Z,102197.38
2023-01-28T22:13:36.780Z,102197.50
2023-01-28T22:18:38.483Z,102195.34
2023-01-28T22:23:41.736Z,102193.94
2023-01-28T22:28:43.406Z,102179.72
2023-01-28T22:33:45.832Z,102174.28
2023-01-28T22:38:48.863Z,102169.38
2023-01-28T22:43:50.918Z,102172.03
2023-01-28T22:48:52.823Z,102177.00
2023-01-28T22:53:55.951Z,102176.78
2023-01-28T22:58:58.194Z,102168.19
2023-01-28T23:03:59.885Z,102171.38
2023-01-28T23:09:02.985Z,102168.47
2023-01-28T23:14:23.308Z,102165.81
2023-01-28T23:19:43.565Z,102160.25
2023-01-28T23:24:46.619Z,102170.53
2023-01-28T23:29:49.008Z,102166.06
2023-01-28T23:34:50.713Z,102157.28
2023-01-28T23:39:53.760Z,102142.97
2023-01-28T23:44:55.489Z,102137.41
2023-01-28T23:49:57.358Z,102134.50
2023-01-28T23:55:00.397Z,102136.19
